Time;durP1;ratioP1;P1;durP2;ratioP2;P2;SDS_P1;SDS_P2;PMS_P1;PMS_P2;Temp;Humidity;BMP_temperature;BMP_pressure;BME280_temperature;BME280_humidity;BME280_pressure;Samples;Min_cycle;Max_cycle;Signal;HPM_P1;HPM_P2
2022/05/19 00:02:13;;;;;;;4.00;3.28;;;14.00;99.90;;;;;;5079590;28;20122;-79
2022/05/19 00:04:40;;;;;;;3.75;2.92;;;14.00;99.90;;;;;;5091096;28;20078;-79
2022/05/19 00:07:07;;;;;;;2.80;2.17;;;14.10;99.90;;;;;;5091181;28;20040;-79
2022/05/19 00:09:33;;;;;;;3.03;2.05;;;14.00;99.90;;;;;;5090842;28;20112;-78
2022/05/19 00:12:01;;;;;;;3.35;2.40;;;14.00;99.90;;;;;;5090034;28;20127;-79
2022/05/19 00:14:27;;;;;;;3.15;2.08;;;14.10;99.90;;;;;;5090842;28;20502;-79
2022/05/19 00:16:56;;;;;;;;;;;14.10;99.90;;;;;;5091525;28;20048;-78
2022/05/19 00:19:22;;;;;;;4.60;2.80;;;14.20;99.90;;;;;;5107573;28;19920;-79
2022/05/19 00:21:48;;;;;;;2.83;2.25;;;14.10;99.90;;;;;;5090979;28;20040;-79
2022/05/19 00:24:14;;;;;;;3.60;2.05;;;14.20;99.90;;;;;;5090655;28;20506;-79
2022/05/19 00:26:39;;;;;;;2.13;1.77;;;14.20;99.90;;;;;;5090577;28;20036;-79
2022/05/19 00:29:05;;;;;;;2.30;1.60;;;14.30;99.90;;;;;;5090484;28;20048;-79
2022/05/19 00:31:32;;;;;;;2.85;2.10;;;14.30;99.90;;;;;;5091880;28;20043;-79
2022/05/19 00:33:59;;;;;;;4.18;3.03;;;14.20;99.90;;;;;;5090352;28;20517;-79
2022/05/19 00:36:25;;;;;;;3.05;2.10;;;14.20;99.90;;;;;;5090528;28;20048;-79
2022/05/19 00:38:51;;;;;;;;;;;14.20;99.90;;;;;;5074015;28;20127;-79
2022/05/19 00:41:17;;;;;;;2.17;1.70;;;14.20;99.90;;;;;;5124177;27;20007;-79
2022/05/19 00:43:46;;;;;;;2.70;1.60;;;14.20;99.90;;;;;;5090714;28;20044;-79
2022/05/19 00:46:21;;;;;;;1.80;1.60;;;14.10;99.90;;;;;;5090663;28;20040;-79
2022/05/19 00:48:49;;;;;;;2.63;1.90;;;14.10;99.90;;;;;;5073450;28;20440;-79
2022/05/19 00:51:17;;;;;;;2.72;1.60;;;14.10;99.90;;;;;;5090352;28;20048;-79
2022/05/19 00:53:54;;;;;;;3.00;1.80;;;14.10;99.90;;;;;;5090133;28;20059;-79
2022/05/19 00:56:20;;;;;;;;;;;14.10;99.90;;;;;;5091031;28;20387;-79
2022/05/19 00:58:58;;;;;;;3.22;2.05;;;14.10;99.90;;;;;;5124485;27;19962;-78
2022/05/19 01:01:24;;;;;;;2.65;2.05;;;14.10;99.90;;;;;;5089916;28;20134;-78
2022/05/19 01:03:55;;;;;;;2.22;1.73;;;14.10;99.90;;;;;;5090607;28;20044;-79
2022/05/19 01:06:23;;;;;;;3.13;2.00;;;14.10;99.90;;;;;;5090073;28;20072;-79
2022/05/19 01:09:00;;;;;;;2.22;1.50;;;14.10;99.90;;;;;;5073185;28;20051;-79
2022/05/19 01:11:26;;;;;;;3.45;1.98;;;14.10;99.90;;;;;;5124344;28;20105;-79
2022/05/19 01:13:52;;;;;;;4.50;2.42;;;14.00;99.90;;;;;;5090216;28;20441;-79
2022/05/19 01:16:18;;;;;;;3.17;2.10;;;14.10;99.90;;;;;;5090004;28;20067;-79
2022/05/19 01:18:44;;;;;;;;;;;14.10;99.90;;;;;;5090679;28;20105;-79
2022/05/19 01:21:13;;;;;;;3.75;2.33;;;14.10;99.90;;;;;;5124264;28;19920;-79
2022/05/19 01:23:48;;;;;;;2.75;2.05;;;14.10;99.90;;;;;;5092974;28;20032;-79
2022/05/19 01:26:22;;;;;;;2.50;1.50;;;14.10;99.90;;;;;;5094119;28;20547;-78
2022/05/19 01:28:48;;;;;;;2.05;1.35;;;14.10;99.90;;;;;;5093909;28;20396;-79
2022/05/19 01:31:37;;;;;;;2.75;1.65;;;14.10;99.90;;;;;;5094067;28;20044;-79
2022/05/19 01:34:05;;;;;;;2.70;1.73;;;14.10;99.90;;;;;;5093961;28;20048;-79
2022/05/19 01:36:31;;;;;;;2.97;2.22;;;14.10;99.90;;;;;;5093911;28;20082;-79
2022/05/19 01:39:07;;;;;;;5.03;3.50;;;14.20;99.90;;;;;;5095104;28;20076;-78
2022/05/19 01:41:43;;;;;;;4.10;3.03;;;14.20;99.90;;;;;;5093775;28;20528;-79
2022/05/19 01:44:29;;;;;;;3.40;2.30;;;14.30;99.90;;;;;;5093760;28;20055;-78
2022/05/19 01:47:06;;;;;;;3.90;2.70;;;14.30;99.90;;;;;;5123603;27;20495;-79
2022/05/19 01:50:14;;;;;;;3.95;2.80;;;14.30;99.90;;;;;;5093814;28;20123;-79
2022/05/19 01:52:54;;;;;;;2.85;2.53;;;14.40;99.90;;;;;;5075542;28;20044;-79
2022/05/19 01:55:59;;;;;;;4.47;4.03;;;14.40;99.90;;;;;;5126298;27;20056;-79
2022/05/19 01:58:47;;;;;;;5.75;4.43;;;14.40;99.90;;;;;;5126604;27;20044;-79
2022/05/19 02:01:15;;;;;;;3.97;2.92;;;14.50;99.90;;;;;;5076092;28;20117;-79
2022/05/19 02:03:51;;;;;;;5.32;4.32;;;14.50;99.90;;;;;;5076728;28;20044;-79
2022/05/19 02:06:24;;;;;;;6.82;5.45;;;14.50;99.90;;;;;;5093469;28;20044;-79
2022/05/19 02:08:54;;;;;;;11.27;7.22;;;14.60;99.90;;;;;;5093006;28;20075;-79
2022/05/19 02:11:29;;;;;;;9.38;6.10;;;14.60;99.90;;;;;;5093198;28;20127;-79
2022/05/19 02:13:59;;;;;;;8.48;6.70;;;14.70;99.90;;;;;;5093218;28;20083;-79
2022/05/19 02:16:25;;;;;;;8.73;6.40;;;14.70;99.90;;;;;;5093211;28;20048;-79
2022/05/19 02:18:51;;;;;;;8.07;6.10;;;14.70;99.90;;;;;;5076501;28;20113;-79
2022/05/19 02:21:19;;;;;;;7.97;6.18;;;14.80;99.90;;;;;;5075769;28;20495;-79
2022/05/19 02:23:45;;;;;;;8.38;7.10;;;14.90;99.90;;;;;;5092987;28;20040;-79
2022/05/19 02:26:11;;;;;;;10.43;8.35;;;14.90;99.90;;;;;;5092879;28;20042;-79
2022/05/19 02:28:45;;;;;;;11.50;9.35;;;14.90;99.90;;;;;;5092936;28;20044;-79
2022/05/19 02:31:11;;;;;;;10.25;9.15;;;14.90;99.90;;;;;;5075829;28;20098;-79
2022/05/19 02:33:37;;;;;;;11.45;9.57;;;14.90;99.90;;;;;;5075651;28;20052;-79
2022/05/19 02:36:04;;;;;;;9.93;8.27;;;15.00;99.90;;;;;;5075567;28;20047;-79
2022/05/19 02:38:30;;;;;;;9.13;7.00;;;15.00;99.90;;;;;;5093125;28;20048;-80
2022/05/19 02:40:55;;;;;;;11.10;9.88;;;15.00;99.90;;;;;;5093139;28;20051;-79
2022/05/19 02:43:21;;;;;;;17.77;12.75;;;15.00;99.90;;;;;;5093383;28;20045;-79
2022/05/19 02:45:47;;;;;;;18.80;14.35;;;15.00;99.90;;;;;;5093418;28;20047;-79
2022/05/19 02:48:15;;;;;;;20.73;16.40;;;15.10;99.90;;;;;;5093523;28;20383;-80
2022/05/19 02:50:42;;;;;;;22.48;17.80;;;15.10;99.90;;;;;;5093281;28;20075;-79
2022/05/19 02:53:08;;;;;;;17.35;14.40;;;15.10;99.90;;;;;;5092887;28;20465;-80
2022/05/19 02:55:34;;;;;;;18.27;14.70;;;15.10;99.90;;;;;;5092644;28;20047;-79
2022/05/19 02:58:00;;;;;;;22.85;16.92;;;15.00;99.90;;;;;;5075638;28;20043;-79
2022/05/19 03:00:26;;;;;;;20.58;15.18;;;15.10;99.90;;;;;;5126603;27;20067;-79
2022/05/19 03:02:57;;;;;;;18.90;15.60;;;15.20;99.90;;;;;;5092487;28;20060;-80
2022/05/19 03:05:27;;;;;;;18.08;13.77;;;15.10;99.90;;;;;;5060039;28;20075;-79
2022/05/19 03:07:52;;;;;;;14.95;13.27;;;15.20;99.90;;;;;;5092320;28;20051;-80
2022/05/19 03:10:18;;;;;;;18.95;13.95;;;15.20;99.90;;;;;;5092277;28;20048;-79
2022/05/19 03:12:45;;;;;;;12.02;9.68;;;15.10;99.90;;;;;;5075406;28;20147;-79
2022/05/19 03:15:10;;;;;;;;;;;15.20;99.90;;;;;;5092492;28;20044;-79
2022/05/19 03:17:36;;;;;;;13.00;9.02;;;15.20;99.90;;;;;;5125891;27;20264;-79
2022/05/19 03:20:04;;;;;;;13.90;11.25;;;15.20;99.90;;;;;;5091717;28;20044;-79
2022/05/19 03:22:29;;;;;;;11.95;9.70;;;15.20;99.90;;;;;;5091856;28;20070;-79
2022/05/19 03:24:55;;;;;;;12.50;10.23;;;15.30;99.90;;;;;;5091799;28;20052;-79
2022/05/19 03:27:21;;;;;;;13.98;11.18;;;15.30;99.90;;;;;;5091864;28;20036;-79
2022/05/19 03:29:50;;;;;;;16.95;12.90;;;15.30;99.90;;;;;;5091642;28;20483;-79
2022/05/19 03:32:16;;;;;;;14.52;12.05;;;15.30;99.90;;;;;;5091853;28;20433;-79
2022/05/19 03:34:42;;;;;;;17.02;13.48;;;15.30;99.90;;;;;;5074616;28;20052;-79
2022/05/19 03:37:08;;;;;;;19.45;16.23;;;15.30;99.90;;;;;;5091705;28;20044;-79
2022/05/19 03:39:35;;;;;;;20.73;15.75;;;15.30;99.90;;;;;;5074611;28;20043;-80
2022/05/19 03:42:02;;;;;;;19.05;14.05;;;15.30;99.90;;;;;;5091823;28;20103;-79
2022/05/19 03:44:27;;;;;;;21.25;15.90;;;15.30;99.90;;;;;;5074486;28;20036;-80
2022/05/19 03:46:53;;;;;;;17.27;12.50;;;15.40;99.90;;;;;;5090273;28;20040;-79
2022/05/19 03:49:19;;;;;;;11.93;10.63;;;15.40;99.90;;;;;;5091604;28;20075;-79
2022/05/19 03:51:45;;;;;;;21.38;15.93;;;15.40;99.90;;;;;;5074501;28;20130;-79
2022/05/19 03:54:11;;;;;;;16.30;13.50;;;15.40;99.90;;;;;;5091434;28;20047;-79
2022/05/19 03:56:37;;;;;;;16.17;12.40;;;15.50;99.90;;;;;;5074326;28;20493;-79
2022/05/19 03:59:04;;;;;;;16.67;12.30;;;15.50;99.90;;;;;;5090848;28;20048;-79
2022/05/19 04:01:30;;;;;;;17.48;14.43;;;15.50;99.90;;;;;;5091779;28;20862;-79
2022/05/19 04:03:55;;;;;;;17.90;13.80;;;15.50;99.90;;;;;;5091454;28;20082;-79
2022/05/19 04:06:21;;;;;;;17.88;13.25;;;15.60;99.90;;;;;;5074098;28;20044;-79
2022/05/19 04:08:48;;;;;;;18.52;15.13;;;15.60;99.90;;;;;;5074356;28;20039;-78
2022/05/19 04:11:13;;;;;;;;;;;15.70;99.90;;;;;;5074875;28;20048;-78
2022/05/19 04:13:39;;;;;;;16.63;12.98;;;15.70;99.90;;;;;;5074003;28;20395;-78
2022/05/19 04:16:05;;;;;;;11.85;9.25;;;15.70;99.90;;;;;;5091183;28;20052;-73
2022/05/19 04:18:30;;;;;;;17.10;13.15;;;15.80;99.90;;;;;;5090653;28;20499;-73
2022/05/19 04:20:56;;;;;;;19.08;14.63;;;15.80;99.90;;;;;;5090443;28;20051;-74
2022/05/19 04:23:22;;;;;;;14.85;12.32;;;15.80;99.90;;;;;;5091007;28;20047;-73
2022/05/19 04:25:48;;;;;;;15.27;12.73;;;15.90;99.90;;;;;;5073614;28;20036;-74
2022/05/19 04:28:14;;;;;;;20.42;14.95;;;15.90;99.90;;;;;;5073630;28;20040;-73
2022/05/19 04:30:41;;;;;;;24.92;19.13;;;15.90;99.90;;;;;;5090492;28;20040;-73
2022/05/19 04:33:08;;;;;;;19.98;16.13;;;16.00;99.90;;;;;;5090606;28;20118;-72
2022/05/19 04:35:34;;;;;;;22.50;18.40;;;16.10;99.90;;;;;;5090406;28;20078;-73
2022/05/19 04:38:04;;;;;;;19.67;15.85;;;16.10;99.90;;;;;;5090226;28;20055;-73
2022/05/19 04:40:30;;;;;;;27.00;20.70;;;16.20;99.90;;;;;;5073417;28;20097;-73
2022/05/19 04:42:55;;;;;;;32.33;23.55;;;16.30;99.90;;;;;;5090245;28;20044;-73
2022/05/19 04:45:21;;;;;;;29.40;22.58;;;16.50;99.90;;;;;;5073467;28;20048;-73
2022/05/19 04:47:47;;;;;;;24.40;19.10;;;16.50;99.90;;;;;;5091634;28;20040;-73
2022/05/19 04:50:13;;;;;;;23.02;19.02;;;16.60;99.90;;;;;;5073514;28;20517;-74
2022/05/19 04:52:39;;;;;;;23.52;18.30;;;16.70;99.90;;;;;;5091591;28;20071;-74
2022/05/19 04:55:07;;;;;;;26.48;20.05;;;16.80;99.90;;;;;;5090430;28;20090;-74
2022/05/19 04:57:33;;;;;;;27.17;21.70;;;16.90;99.90;;;;;;5089782;28;20407;-72
2022/05/19 04:59:58;;;;;;;31.25;26.40;;;17.00;99.90;;;;;;5090123;28;20055;-73
2022/05/19 05:02:24;;;;;;;29.67;23.63;;;17.00;99.90;;;;;;5090190;28;20499;-74
2022/05/19 05:04:50;;;;;;;22.38;17.92;;;17.10;99.90;;;;;;5090124;28;20535;-74
2022/05/19 05:07:15;;;;;;;23.23;18.98;;;17.20;99.90;;;;;;5090245;28;20047;-74
2022/05/19 05:09:41;;;;;;;21.58;16.02;;;17.20;99.90;;;;;;5090285;28;20047;-73
2022/05/19 05:12:07;;;;;;;17.15;14.75;;;17.30;99.90;;;;;;5073160;28;20471;-74
2022/05/19 05:14:33;;;;;;;21.58;17.45;;;17.30;99.90;;;;;;5107247;28;20390;-73
2022/05/19 05:16:59;;;;;;;22.50;18.30;;;17.40;99.90;;;;;;5090390;28;20048;-74
2022/05/19 05:19:25;;;;;;;19.67;16.90;;;17.40;99.90;;;;;;5123964;28;20048;-74
2022/05/19 05:21:55;;;;;;;13.38;11.07;;;17.50;99.90;;;;;;5090245;28;20048;-74
2022/05/19 05:24:21;;;;;;;13.52;11.20;;;17.50;99.90;;;;;;5124013;28;20093;-74
2022/05/19 05:26:47;;;;;;;13.77;12.00;;;17.60;99.90;;;;;;5089777;28;20048;-74
2022/05/19 05:29:12;;;;;;;18.08;13.55;;;17.70;99.90;;;;;;5089681;28;20042;-74
2022/05/19 05:31:38;;;;;;;11.88;8.75;;;17.70;99.90;;;;;;5089706;28;20046;-73
2022/05/19 05:34:04;;;;;;;16.30;12.60;;;17.80;99.90;;;;;;5090171;28;20051;-73
2022/05/19 05:36:30;;;;;;;14.82;12.10;;;17.80;99.90;;;;;;5072920;28;20434;-73
2022/05/19 05:38:56;;;;;;;;;;;17.90;99.90;;;;;;5090011;28;20044;-73
2022/05/19 05:41:22;;;;;;;19.73;16.88;;;18.00;99.90;;;;;;5123733;28;19924;-73
2022/05/19 05:43:47;;;;;;;;;;;18.10;99.90;;;;;;5090019;28;20403;-74
2022/05/19 05:46:19;;;;;;;20.98;16.70;;;18.20;99.90;;;;;;5089979;28;19920;-73
2022/05/19 05:48:45;;;;;;;;;;;18.30;99.90;;;;;;5090260;28;20392;-73
2022/05/19 05:51:13;;;;;;;17.20;12.57;;;18.40;99.90;;;;;;5123829;28;19916;-74
2022/05/19 05:53:41;;;;;;;14.57;12.13;;;18.60;99.90;;;;;;5089815;28;20044;-73
2022/05/19 05:56:09;;;;;;;19.80;15.05;;;18.80;99.90;;;;;;5089454;28;20471;-73
2022/05/19 05:58:35;;;;;;;19.80;15.50;;;18.90;99.90;;;;;;5089606;28;20173;-73
2022/05/19 06:01:01;;;;;;;;;;;18.90;99.90;;;;;;5089888;28;20131;-73
2022/05/19 06:03:26;;;;;;;20.00;15.98;;;18.90;99.90;;;;;;5123504;28;19931;-74
2022/05/19 06:05:54;;;;;;;14.60;11.35;;;18.90;99.90;;;;;;5089437;28;20087;-74
2022/05/19 06:08:20;;;;;;;19.42;15.70;;;19.00;99.90;;;;;;5089545;28;20047;-74
2022/05/19 06:10:46;;;;;;;;;;;19.10;99.90;;;;;;5094263;28;20051;-74
2022/05/19 06:13:13;;;;;;;20.30;16.35;;;19.10;99.90;;;;;;5060189;28;20510;-74
2022/05/19 06:15:39;;;;;;;18.10;14.57;;;19.10;99.90;;;;;;5076961;28;20048;-73
2022/05/19 06:18:05;;;;;;;16.23;14.23;;;19.10;99.90;;;;;;5093217;28;20130;-73
2022/05/19 06:20:30;;;;;;;;;;;19.10;99.90;;;;;;5093532;28;20044;-74
2022/05/19 06:22:57;;;;;;;20.95;13.73;;;19.10;99.90;;;;;;5127193;27;20290;-74
2022/05/19 06:25:24;;;;;;;17.52;13.30;;;19.20;99.90;;;;;;5076406;28;20056;-74
2022/05/19 06:27:50;;;;;;;16.63;13.48;;;19.20;99.90;;;;;;5126969;27;20036;-74
2022/05/19 06:30:17;;;;;;;;;;;19.30;99.90;;;;;;5093354;28;20047;-74
2022/05/19 06:32:44;;;;;;;20.73;15.30;;;19.30;99.90;;;;;;5127093;27;19920;-74
2022/05/19 06:35:12;;;;;;;21.83;17.33;;;19.20;99.90;;;;;;5092791;28;20044;-74
2022/05/19 06:37:38;;;;;;;19.73;15.27;;;19.10;99.90;;;;;;5092888;28;20398;-74
2022/05/19 06:40:04;;;;;;;;;;;19.10;99.90;;;;;;5092971;28;20077;-73
2022/05/19 06:42:30;;;;;;;13.85;11.13;;;19.10;99.90;;;;;;5109733;28;19916;-73
2022/05/19 06:44:56;;;;;;;15.13;12.95;;;19.10;99.90;;;;;;5092656;28;20044;-73
2022/05/19 06:47:21;;;;;;;;;;;19.10;99.90;;;;;;5093073;28;20048;-72
2022/05/19 06:49:52;;;;;;;13.98;10.15;;;19.00;99.90;;;;;;5075553;28;20287;-73
2022/05/19 06:52:21;;;;;;;13.75;11.95;;;19.00;99.90;;;;;;5092539;28;20047;-73
2022/05/19 06:54:55;;;;;;;17.33;13.70;;;18.90;99.90;;;;;;5058797;28;20082;-73
2022/05/19 06:57:22;;;;;;;14.95;12.52;;;18.70;99.90;;;;;;5075177;28;20048;-73
2022/05/19 06:59:49;;;;;;;13.60;11.13;;;18.60;99.90;;;;;;5092208;28;20043;-73
2022/05/19 07:02:17;;;;;;;13.07;10.27;;;18.50;99.90;;;;;;5075410;28;20060;-73
2022/05/19 07:04:43;;;;;;;12.52;8.60;;;18.40;99.90;;;;;;5074968;28;20503;-74
2022/05/19 07:07:11;;;;;;;7.18;5.57;;;18.20;99.90;;;;;;5075178;28;20075;-73
2022/05/19 07:09:38;;;;;;;7.05;4.70;;;18.20;99.90;;;;;;5075164;28;20175;-74
2022/05/19 07:12:05;;;;;;;5.47;4.75;;;18.30;99.90;;;;;;5092193;28;20040;-73
2022/05/19 07:14:32;;;;;;;7.43;6.30;;;18.30;99.90;;;;;;5092179;28;20047;-74
2022/05/19 07:16:58;;;;;;;14.10;11.73;;;18.30;99.90;;;;;;5092044;28;20036;-74
2022/05/19 07:22:17;;;;;;;14.57;8.98;;;18.30;99.90;;;;;;5091525;28;19924;-73
2022/05/19 07:24:43;;;;;;;10.85;8.60;;;18.30;99.90;;;;;;5091642;28;20127;-73
2022/05/19 07:27:09;;;;;;;;;;;18.40;99.90;;;;;;5092016;28;20134;-73
2022/05/19 07:29:36;;;;;;;9.77;8.02;;;18.40;99.90;;;;;;5125553;27;19931;-73
2022/05/19 07:32:02;;;;;;;9.23;8.23;;;18.40;99.90;;;;;;5091516;28;20128;-73
2022/05/19 07:34:29;;;;;;;;;;;18.40;99.90;;;;;;5091824;28;20127;-73
2022/05/19 07:36:55;;;;;;;11.23;9.57;;;18.30;99.90;;;;;;5125750;27;20298;-73
2022/05/19 07:39:21;;;;;;;;;;;18.20;99.90;;;;;;5091847;28;20211;-73
2022/05/19 07:41:48;;;;;;;12.60;8.57;;;18.10;99.90;;;;;;5091370;28;20014;-73
2022/05/19 07:44:14;;;;;;;10.57;8.05;;;18.10;99.90;;;;;;5091383;28;20078;-74
2022/05/19 07:46:39;;;;;;;;;;;18.10;99.90;;;;;;5058207;28;20480;-73
2022/05/19 07:49:07;;;;;;;11.18;8.95;;;18.20;99.90;;;;;;5125338;27;19970;-73
2022/05/19 07:51:39;;;;;;;6.60;5.20;;;18.20;99.90;;;;;;5091137;28;20048;-73
2022/05/19 07:54:11;;;;;;;7.28;5.30;;;18.20;99.90;;;;;;5092619;27;20557;-73
2022/05/19 07:56:41;;;;;;;7.15;6.30;;;18.30;99.90;;;;;;5091063;28;20510;-73
2022/05/19 07:59:08;;;;;;;6.82;5.00;;;18.40;99.90;;;;;;5074219;28;20495;-73
2022/05/19 08:01:35;;;;;;;10.93;8.18;;;18.50;99.90;;;;;;5090504;28;20110;-73
2022/05/19 08:04:01;;;;;;;7.35;5.97;;;18.40;99.90;;;;;;5057743;28;20078;-73
2022/05/19 08:06:29;;;;;;;;;;;18.60;99.90;;;;;;5091239;28;20156;-74
2022/05/19 08:08:58;;;;;;;6.80;4.32;;;18.70;99.90;;;;;;5125001;27;19964;-73
2022/05/19 08:11:24;;;;;;;7.00;5.07;;;18.80;99.90;;;;;;5090899;28;20518;-74
2022/05/19 08:16:35;;;;;;;7.38;4.93;;;18.90;99.90;;;;;;5090645;28;20495;-74
2022/05/19 08:19:01;;;;;;;12.00;6.63;;;19.00;99.90;;;;;;5090734;28;20123;-74
2022/05/19 08:21:27;;;;;;;9.35;4.97;;;19.00;99.90;;;;;;5090541;28;20083;-73
2022/05/19 08:23:52;;;;;;;;;;;19.10;99.90;;;;;;5091012;28;20075;-74
2022/05/19 08:26:19;;;;;;;7.20;4.03;;;19.00;99.90;;;;;;5090503;28;19916;-74
2022/05/19 08:28:46;;;;;;;6.22;4.15;;;19.10;99.90;;;;;;5091001;28;20102;-74
2022/05/19 08:31:14;;;;;;;4.60;3.67;;;19.00;99.90;;;;;;5090713;28;20044;-74
2022/05/19 08:33:42;;;;;;;6.32;4.53;;;19.10;99.90;;;;;;5089909;28;20118;-74
2022/05/19 08:36:09;;;;;;;6.20;4.20;;;19.00;99.90;;;;;;5073386;28;20035;-74
2022/05/19 08:38:36;;;;;;;7.22;3.95;;;19.00;99.90;;;;;;5090627;28;20056;-73
2022/05/19 08:41:17;;;;;;;5.78;4.32;;;19.00;99.90;;;;;;5090460;28;20044;-73
2022/05/19 08:43:52;;;;;;;11.82;5.70;;;19.00;99.90;;;;;;5090640;28;20097;-73
2022/05/19 08:46:24;;;;;;;7.47;4.15;;;19.00;99.90;;;;;;5090475;28;20122;-73
2022/05/19 08:48:53;;;;;;;5.50;3.50;;;19.10;99.90;;;;;;5073562;28;20511;-74
2022/05/19 08:51:22;;;;;;;5.97;3.90;;;19.30;99.90;;;;;;5090596;28;20101;-74
2022/05/19 08:53:48;;;;;;;6.03;3.80;;;19.40;99.90;;;;;;5090224;28;20448;-74
2022/05/19 08:56:25;;;;;;;;;;;19.50;99.90;;;;;;5091097;28;20055;-74
2022/05/19 08:58:59;;;;;;;6.72;4.82;;;19.80;99.90;;;;;;5124332;27;20370;-74
2022/05/19 09:01:35;;;;;;;6.65;3.55;;;20.00;99.90;;;;;;5073100;28;20040;-73
2022/05/19 09:04:29;;;;;;;8.90;5.00;;;20.20;99.90;;;;;;5090324;28;20048;-73
2022/05/19 09:09:54;;;;;;;5.53;2.80;;;20.60;99.90;;;;;;5090064;28;20113;-74
2022/05/19 09:12:27;;;;;;;5.97;3.67;;;20.80;99.90;;;;;;5090415;28;20070;-74
2022/05/19 09:14:53;;;;;;;6.63;3.25;;;20.90;99.90;;;;;;5089964;28;20471;-74
2022/05/19 09:17:25;;;;;;;4.93;2.03;;;21.00;99.90;;;;;;5090111;28;20028;-74
2022/05/19 09:19:59;;;;;;;3.63;2.50;;;21.20;99.90;;;;;;5090143;28;20048;-74
2022/05/19 09:22:29;;;;;;;2.97;1.95;;;21.20;99.90;;;;;;5089869;28;20429;-73
2022/05/19 09:24:55;;;;;;;4.45;2.40;;;21.40;99.90;;;;;;5090096;28;20044;-74
2022/05/19 09:27:22;;;;;;;3.60;2.13;;;21.60;99.90;;;;;;5090007;28;20098;-74
2022/05/19 09:29:53;;;;;;;2.65;1.80;;;21.90;99.90;;;;;;5073639;28;20044;-73
2022/05/19 09:32:34;;;;;;;3.25;2.20;;;22.00;99.90;;;;;;5089768;28;20123;-74
2022/05/19 09:35:06;;;;;;;4.55;1.92;;;22.10;99.90;;;;;;5090030;28;20040;-74
2022/05/19 09:37:44;;;;;;;4.15;2.60;;;22.20;99.90;;;;;;5089882;28;20458;-74
2022/05/19 09:40:10;;;;;;;2.92;1.67;;;22.30;99.90;;;;;;5089775;28;20032;-74
2022/05/19 09:42:49;;;;;;;2.25;1.40;;;22.40;99.90;;;;;;5089792;28;20086;-74
2022/05/19 09:45:15;;;;;;;2.13;1.30;;;22.50;99.90;;;;;;5091806;28;20075;-74
2022/05/19 09:47:45;;;;;;;2.97;1.60;;;22.60;99.90;;;;;;5093601;28;20522;-74
2022/05/19 09:50:21;;;;;;;2.63;1.80;;;22.70;99.90;;;;;;5093636;28;20044;-73
2022/05/19 09:52:47;;;;;;;2.83;1.67;;;22.60;99.90;;;;;;5093661;28;20131;-73
2022/05/19 09:55:19;;;;;;;3.15;2.00;;;22.70;99.90;;;;;;5094797;28;20044;-73
2022/05/19 09:57:52;;;;;;;2.85;1.67;;;22.90;99.90;;;;;;5093708;28;20101;-74
2022/05/19 10:00:20;;;;;;;1.90;1.70;;;23.00;99.90;;;;;;5093604;28;20032;-74
2022/05/19 10:02:51;;;;;;;3.63;1.92;;;23.00;99.90;;;;;;5094473;28;20407;-74
2022/05/19 10:05:37;;;;;;;2.50;1.50;;;23.10;99.90;;;;;;5094983;28;20054;-74
2022/05/19 10:08:17;;;;;;;6.15;2.05;;;23.20;99.90;;;;;;5093544;28;20127;-73
2022/05/19 10:11:03;;;;;;;2.20;1.55;;;23.30;99.90;;;;;;5093502;28;20044;-73
2022/05/19 10:13:45;;;;;;;3.15;1.85;;;23.40;99.90;;;;;;5093073;28;20127;-74
2022/05/19 10:16:25;;;;;;;3.47;1.88;;;23.50;99.90;;;;;;5093305;28;20106;-74
2022/05/19 10:19:22;;;;;;;3.13;1.67;;;23.70;99.90;;;;;;5093042;28;20105;-74
2022/05/19 10:22:09;;;;;;;2.75;1.48;;;24.10;99.90;;;;;;5092875;28;20395;-74
2022/05/19 10:24:53;;;;;;;2.33;1.50;;;24.70;99.90;;;;;;5093167;28;20551;-73
2022/05/19 10:33:39;;;;;;;4.07;1.52;;;25.60;99.90;;;;;;5092827;28;20440;-74
2022/05/19 10:36:20;;;;;;;2.80;1.35;;;25.90;99.90;;;;;;5093124;28;20048;-74
2022/05/19 10:39:14;;;;;;;2.42;1.48;;;26.20;99.90;;;;;;5092791;28;20058;-74
2022/05/19 10:41:50;;;;;;;1.80;1.10;;;26.20;99.90;;;;;;5092606;28;20044;-74
2022/05/19 10:44:41;;;;;;;2.83;1.60;;;26.20;99.90;;;;;;5092580;28;20560;-74
2022/05/19 10:47:13;;;;;;;4.75;2.13;;;25.90;99.90;;;;;;5126629;27;20050;-72
2022/05/19 10:49:51;;;;;;;2.30;1.50;;;25.40;99.90;;;;;;5092274;28;20402;-73
2022/05/19 10:52:38;;;;;;;2.53;1.50;;;25.10;99.90;;;;;;5092465;28;20377;-74
2022/05/19 10:55:19;;;;;;;1.30;0.90;;;24.90;99.90;;;;;;5074932;28;20039;-74
2022/05/19 10:58:23;;;;;;;3.53;2.20;;;24.90;99.90;;;;;;5092238;28;20492;-74
2022/05/19 11:01:13;;;;;;;4.22;2.60;;;24.80;99.90;;;;;;5114479;27;20138;-74
2022/05/19 11:04:05;;;;;;;4.20;2.80;;;25.40;99.90;;;;;;5091996;28;20067;-74
2022/05/19 11:07:03;;;;;;;3.53;2.70;;;25.80;99.90;;;;;;5092226;28;20055;-74
2022/05/19 11:09:51;;;;;;;4.20;2.30;;;25.70;99.90;;;;;;5126020;27;20052;-74
2022/05/19 11:12:36;;;;;;;5.82;2.47;;;26.10;99.90;;;;;;5092631;28;20036;-74
2022/05/19 11:15:11;;;;;;;4.80;2.30;;;26.20;99.90;;;;;;5092219;28;20491;-73
2022/05/19 11:17:45;;;;;;;3.50;3.20;;;26.50;99.90;;;;;;5091930;28;20058;-74
2022/05/19 11:20:18;;;;;;;4.65;2.83;;;26.40;99.90;;;;;;5092048;28;20113;-73
2022/05/19 11:22:50;;;;;;;3.80;2.63;;;26.70;99.90;;;;;;5092106;28;20036;-73
2022/05/19 11:28:19;;;;;;;2.78;1.80;;;26.50;97.70;;;;;;5099991;28;20193;-72
2022/05/19 11:30:51;;;;;;;4.43;2.50;;;26.50;98.40;;;;;;5105950;28;20060;-73
2022/05/19 11:33:22;;;;;;;2.88;1.92;;;26.50;96.90;;;;;;5081340;28;20048;-74
2022/05/19 11:35:55;;;;;;;3.38;2.20;;;26.40;97.80;;;;;;5106645;28;20491;-73
2022/05/19 11:38:36;;;;;;;3.20;2.50;;;26.20;97.20;;;;;;5093523;28;20514;-73
2022/05/19 11:41:11;;;;;;;2.85;2.22;;;25.80;97.40;;;;;;5091381;28;20048;-73
2022/05/19 11:43:45;;;;;;;2.47;1.80;;;25.40;98.80;;;;;;5093927;28;20048;-74
2022/05/19 11:46:23;;;;;;;3.28;2.10;;;25.30;99.90;;;;;;5094460;28;20183;-74
2022/05/19 11:55:17;;;;;;;3.67;2.95;;;25.90;99.90;;;;;;5092163;28;20044;-74
2022/05/19 11:58:20;;;;;;;5.32;3.67;;;26.20;99.30;;;;;;5095127;28;20040;-74
2022/05/19 12:01:03;;;;;;;2.97;2.67;;;26.20;99.20;;;;;;5088849;28;20084;-74
2022/05/19 12:04:03;;;;;;;3.90;2.75;;;26.00;99.90;;;;;;5099447;28;20083;-74
2022/05/19 12:06:52;;;;;;;3.05;2.72;;;25.90;99.90;;;;;;5091478;28;20098;-74
2022/05/19 12:09:30;;;;;;;3.70;3.00;;;25.60;99.90;;;;;;5097805;28;20212;-74
2022/05/19 12:12:04;;;;;;;5.43;3.20;;;25.30;99.90;;;;;;5092986;28;20132;-74
2022/05/19 12:14:38;;;;;;;4.68;3.20;;;25.10;99.90;;;;;;5100035;28;20089;-73
2022/05/19 12:17:13;;;;;;;4.35;3.47;;;24.90;99.90;;;;;;5099305;28;20043;-73
2022/05/19 12:19:55;;;;;;;3.42;2.60;;;24.70;99.90;;;;;;5110074;28;20059;-80
2022/05/19 12:22:32;;;;;;;4.18;3.00;;;24.50;99.90;;;;;;5100086;28;20482;-80
2022/05/19 12:25:01;;;;;;;2.97;2.30;;;24.50;99.90;;;;;;5111697;28;20048;-81
2022/05/19 12:27:37;;;;;;;2.70;2.17;;;24.40;99.90;;;;;;5103914;28;20456;-80
2022/05/19 12:33:36;;;;;;;3.53;2.38;;;24.30;99.90;;;;;;5094577;28;20071;-81
2022/05/19 12:36:11;;;;;;;2.83;2.53;;;24.30;99.90;;;;;;5102766;28;20129;-80
2022/05/19 12:38:43;;;;;;;4.80;4.20;;;24.20;99.90;;;;;;5093533;28;20047;-80
2022/05/19 12:41:28;;;;;;;4.22;3.40;;;24.10;99.90;;;;;;5109104;28;20376;-81
2022/05/19 12:43:55;;;;;;;5.03;3.67;;;24.00;99.90;;;;;;5096410;28;20117;-80
2022/05/19 12:46:33;;;;;;;4.53;3.45;;;23.80;99.90;;;;;;5092511;28;20089;-74
2022/05/19 12:49:29;;;;;;;6.40;4.90;;;23.60;99.90;;;;;;5088825;28;20058;-74
2022/05/19 12:52:02;;;;;;;5.10;3.30;;;23.40;99.90;;;;;;5099168;28;20079;-74
2022/05/19 12:54:31;;;;;;;5.18;3.92;;;23.30;99.90;;;;;;5109988;28;20047;-74
2022/05/19 12:57:12;;;;;;;5.50;4.20;;;23.10;99.90;;;;;;5107569;28;20040;-75
2022/05/19 12:59:47;;;;;;;7.35;4.68;;;22.90;99.90;;;;;;5079648;28;20127;-76
2022/05/19 13:02:35;;;;;;;5.60;2.97;;;21.80;99.90;;;;;;5092760;28;20043;-76
2022/05/19 13:05:18;;;;;;;4.90;2.08;;;20.40;99.90;;;;;;5083352;28;20040;-75
2022/05/19 13:07:49;;;;;;;3.05;1.90;;;19.70;99.90;;;;;;5105761;28;20039;-75
2022/05/19 13:10:25;;;;;;;1.63;1.10;;;19.30;99.90;;;;;;5101069;28;20047;-75
2022/05/19 13:13:10;;;;;;;2.15;1.30;;;19.00;99.90;;;;;;5101907;28;20044;-75
2022/05/19 13:16:10;;;;;;;4.55;2.28;;;18.70;99.90;;;;;;5107190;28;20051;-75
2022/05/19 13:18:39;;;;;;;4.90;2.67;;;18.50;99.90;;;;;;5102100;28;20130;-76
2022/05/19 13:21:09;;;;;;;4.95;2.85;;;18.30;99.90;;;;;;5108656;28;20514;-75
2022/05/19 13:23:39;;;;;;;4.63;2.90;;;18.40;99.90;;;;;;5098727;28;20403;-75
2022/05/19 13:26:15;;;;;;;5.07;2.92;;;18.30;99.90;;;;;;5093528;28;20040;-75
2022/05/19 13:31:27;;;;;;;5.85;3.40;;;18.10;99.90;;;;;;5105390;28;20125;-73
2022/05/19 13:33:58;;;;;;;6.80;4.20;;;18.00;99.90;;;;;;5115337;28;20046;-74
2022/05/19 13:36:51;;;;;;;5.60;4.10;;;17.80;99.90;;;;;;5084141;28;20114;-74